Terminal Aerodrome Forecast
Issued by NWS

Home | Current Version | Previous Version | Text Only | Print | Product List | Glossary On
Versions: 1 2 3 4 5 6 7 8 9 10 11 12 13 14
000
FTUS45 KVEF 280500
TAFBIH
TAF
KBIH 280535Z 2806/2906 05008KT P6SM VCSH BKN110
     FM280800 32006KT P6SM BKN110
     FM282100 25011KT P6SM VCSH BKN110=

USA.gov is the U.S. government's official web portal to all federal, state and local government web resources and services.